Estación Meteorológica de la Universidad de Murcia
Estación Meteorológica de la Universidad de Murcia
Universidad de Murcia
 

Temperatura y Humedad del sueloTemperatura y Humedad del suelo

 

Temperatura del suelo máxima: 37 ºC a las 15:30:00 del día 24/07/2021
Temperatura del suelo mínima: 22,3 ºC a las 06:46:00 del día 24/07/2021
Humedad del suelo máxima: 56,7 % a las 16:37:00 del día 24/07/2021
Humedad del suelo mínima: 54,2 % a las 09:42:00 del día 24/07/2021

||Temperatura del suelo máxima últimos meses|| ---- ||Temperatura del suelo mínima últimos meses||

----||Humedad del suelo máxima últimos meses|| ---- ||Humedad del suelo mínima últimos meses||


Temperatura del suelo máxima

  • 1 - 37 ºC del día 24/07/2021
  • 2 - 36,2 ºC del día 23/07/2021
  • 3 - 35,3 ºC del día 22/07/2021
  • 4 - 34,9 ºC del día 21/07/2021
  • 5 - 34,9 ºC del día 20/07/2021
  • 6 - 33,4 ºC del día 19/07/2021
  • 7 - 35,3 ºC del día 18/07/2021
  • 8 - 33,6 ºC del día 17/07/2021
  • 9 - 33,5 ºC del día 16/07/2021
  • 10 - 31,2 ºC del día 15/07/2021
  • 11 - 33 ºC del día 14/07/2021
  • 12 - 32,9 ºC del día 13/07/2021
  • 13 - 37,5 ºC del día 12/07/2021
  • 14 - 34,4 ºC del día 11/07/2021
  • 15 - 34,3 ºC del día 10/07/2021
  • 16 - 32,4 ºC del día 09/07/2021
  • 17 - 32,6 ºC del día 08/07/2021
  • 18 - 33,8 ºC del día 07/07/2021
  • 19 - 37 ºC del día 06/07/2021
  • 20 - 34,3 ºC del día 05/07/2021
  • 21 - 36,8 ºC del día 04/07/2021
  • 22 - 36,9 ºC del día 03/07/2021
  • 23 - 35,3 ºC del día 02/07/2021
  • 24 - 33,3 ºC del día 01/07/2021
  • 25 - 32,4 ºC del día 30/06/2021
  • 26 - 32,4 ºC del día 29/06/2021
  • 27 - 34,8 ºC del día 28/06/2021
  • 28 - 34,8 ºC del día 27/06/2021
  • 29 - 33,2 ºC del día 26/06/2021
  • 30 - 31,3 ºC del día 25/06/2021
  • 31 - 31,4 ºC del día 24/06/2021
  • 32 - 31,1 ºC del día 23/06/2021
  • 33 - 32,2 ºC del día 22/06/2021
  • 34 - 33,2 ºC del día 21/06/2021
  • 35 - 31,2 ºC del día 20/06/2021
  • 36 - 28,3 ºC del día 19/06/2021
  • 37 - 31,4 ºC del día 18/06/2021
  • 38 - 31,9 ºC del día 17/06/2021
  • 39 - 32,5 ºC del día 16/06/2021
  • 40 - 32,4 ºC del día 15/06/2021
  • 41 - 33 ºC del día 14/06/2021
  • 42 - 32,4 ºC del día 13/06/2021
  • 43 - 31,8 ºC del día 12/06/2021
  • 44 - 31,4 ºC del día 11/06/2021
  • 45 - 31,6 ºC del día 10/06/2021
  • 46 - 33,9 ºC del día 09/06/2021
  • 47 - 31,6 ºC del día 08/06/2021
  • 48 - 31,7 ºC del día 07/06/2021
  • 49 - 30,9 ºC del día 06/06/2021
  • 50 - 27 ºC del día 05/06/2021
  • 51 - 29 ºC del día 04/06/2021
  • 52 - 29 ºC del día 03/06/2021
  • 53 - 30,3 ºC del día 02/06/2021
  • 54 - 28,9 ºC del día 01/06/2021
  • 55 - 25 ºC del día 31/05/2021
  • 56 - 30 ºC del día 30/05/2021
  • 57 - 30,8 ºC del día 29/05/2021
  • 58 - 27,4 ºC del día 28/05/2021
  • 59 - 26,8 ºC del día 27/05/2021

||Volver al inicio de la página||


Temperatura del suelo mínima

  • 1 - 22,3 ºC del día 24/07/2021
  • 2 - 20,5 ºC del día 23/07/2021
  • 3 - 20,5 ºC del día 22/07/2021
  • 4 - 22,3 ºC del día 21/07/2021
  • 5 - 22,6 ºC del día 20/07/2021
  • 6 - 22,5 ºC del día 19/07/2021
  • 7 - 22 ºC del día 18/07/2021
  • 8 - 20,6 ºC del día 17/07/2021
  • 9 - 19,9 ºC del día 16/07/2021
  • 10 - 19,3 ºC del día 15/07/2021
  • 11 - 19,7 ºC del día 14/07/2021
  • 12 - 20,7 ºC del día 13/07/2021
  • 13 - 23,6 ºC del día 12/07/2021
  • 14 - 20,3 ºC del día 11/07/2021
  • 15 - 18,3 ºC del día 10/07/2021
  • 16 - 21,7 ºC del día 09/07/2021
  • 17 - 22,4 ºC del día 08/07/2021
  • 18 - 21,2 ºC del día 07/07/2021
  • 19 - 21,4 ºC del día 06/07/2021
  • 20 - 20,5 ºC del día 05/07/2021
  • 21 - 19,5 ºC del día 04/07/2021
  • 22 - 20,5 ºC del día 03/07/2021
  • 23 - 20,5 ºC del día 02/07/2021
  • 24 - 20,2 ºC del día 01/07/2021
  • 25 - 21,8 ºC del día 30/06/2021
  • 26 - 18,5 ºC del día 29/06/2021
  • 27 - 18,4 ºC del día 28/06/2021
  • 28 - 18,3 ºC del día 27/06/2021
  • 29 - 17,4 ºC del día 26/06/2021
  • 30 - 17,8 ºC del día 25/06/2021
  • 31 - 18,2 ºC del día 24/06/2021
  • 32 - 17,6 ºC del día 23/06/2021
  • 33 - 18,6 ºC del día 22/06/2021
  • 34 - 17,8 ºC del día 21/06/2021
  • 35 - 18,8 ºC del día 20/06/2021
  • 36 - 20,7 ºC del día 19/06/2021
  • 37 - 19,2 ºC del día 18/06/2021
  • 38 - 18,2 ºC del día 17/06/2021
  • 39 - 20,9 ºC del día 16/06/2021
  • 40 - 18,8 ºC del día 15/06/2021
  • 41 - 18 ºC del día 14/06/2021
  • 42 - 18,8 ºC del día 13/06/2021
  • 43 - 17,5 ºC del día 12/06/2021
  • 44 - 17,1 ºC del día 11/06/2021
  • 45 - 20,1 ºC del día 10/06/2021
  • 46 - 17,6 ºC del día 09/06/2021
  • 47 - 18 ºC del día 08/06/2021
  • 48 - 18,6 ºC del día 07/06/2021
  • 49 - 15,5 ºC del día 06/06/2021
  • 50 - 16,4 ºC del día 05/06/2021
  • 51 - 19 ºC del día 04/06/2021
  • 52 - 19,1 ºC del día 03/06/2021
  • 53 - 17,6 ºC del día 02/06/2021
  • 54 - 16,7 ºC del día 01/06/2021
  • 55 - 16,4 ºC del día 31/05/2021
  • 56 - 16,3 ºC del día 30/05/2021
  • 57 - 15,6 ºC del día 29/05/2021
  • 58 - 17 ºC del día 28/05/2021
  • 59 - 14,9 ºC del día 27/05/2021

||Volver al inicio de la página||


Humedad del suelo máxima

  • 1 - 56,7 % del día 24/07/2021
  • 2 - 56,6 % del día 23/07/2021
  • 3 - 56,8 % del día 22/07/2021
  • 4 - 57 % del día 21/07/2021
  • 5 - 57,3 % del día 20/07/2021
  • 6 - 57,1 % del día 19/07/2021
  • 7 - 57,2 % del día 18/07/2021
  • 8 - 57,1 % del día 17/07/2021
  • 9 - 57,2 % del día 16/07/2021
  • 10 - 57,1 % del día 15/07/2021
  • 11 - 57,4 % del día 14/07/2021
  • 12 - 58,2 % del día 13/07/2021
  • 13 - 57,9 % del día 12/07/2021
  • 14 - 57,9 % del día 11/07/2021
  • 15 - 58,1 % del día 10/07/2021
  • 16 - 58,4 % del día 09/07/2021
  • 17 - 58,5 % del día 08/07/2021
  • 18 - 58,7 % del día 07/07/2021
  • 19 - 59,3 % del día 06/07/2021
  • 20 - 59,5 % del día 05/07/2021
  • 21 - 59,6 % del día 04/07/2021
  • 22 - 59,9 % del día 03/07/2021
  • 23 - 60,1 % del día 02/07/2021
  • 24 - 60,2 % del día 01/07/2021
  • 25 - 60,6 % del día 30/06/2021
  • 26 - 60,7 % del día 29/06/2021
  • 27 - 61,1 % del día 28/06/2021
  • 28 - 61,4 % del día 27/06/2021
  • 29 - 61,6 % del día 26/06/2021
  • 30 - 61,9 % del día 25/06/2021
  • 31 - 62,8 % del día 24/06/2021
  • 32 - 63,3 % del día 23/06/2021
  • 33 - 64,3 % del día 22/06/2021
  • 34 - 65,1 % del día 21/06/2021
  • 35 - 66 % del día 20/06/2021
  • 36 - 67,1 % del día 19/06/2021
  • 37 - 69,7 % del día 18/06/2021
  • 38 - 76,7 % del día 17/06/2021
  • 39 - 59,3 % del día 16/06/2021
  • 40 - 59,3 % del día 15/06/2021
  • 41 - 59,9 % del día 14/06/2021
  • 42 - 61,1 % del día 13/06/2021
  • 43 - 61,4 % del día 12/06/2021
  • 44 - 62,3 % del día 11/06/2021
  • 45 - 63,6 % del día 10/06/2021
  • 46 - 64,8 % del día 09/06/2021
  • 47 - 66,2 % del día 08/06/2021
  • 48 - 68,2 % del día 07/06/2021
  • 49 - 74,2 % del día 06/06/2021
  • 50 - 76,9 % del día 05/06/2021
  • 51 - 61,8 % del día 04/06/2021
  • 52 - 61,5 % del día 03/06/2021
  • 53 - 61,9 % del día 02/06/2021
  • 54 - 62,1 % del día 01/06/2021
  • 55 - 63,1 % del día 31/05/2021
  • 56 - 63,6 % del día 30/05/2021
  • 57 - 64,2 % del día 29/05/2021
  • 58 - 64,3 % del día 28/05/2021
  • 59 - 65,4 % del día 27/05/2021

||Volver al inicio de la página||


Humedad del suelo mínima

  • 1 - 54,2 % del día 24/07/2021
  • 2 - 54,3 % del día 23/07/2021
  • 3 - 54,4 % del día 22/07/2021
  • 4 - 54,5 % del día 21/07/2021
  • 5 - 54,5 % del día 20/07/2021
  • 6 - 54,8 % del día 19/07/2021
  • 7 - 54,8 % del día 18/07/2021
  • 8 - 55 % del día 17/07/2021
  • 9 - 55 % del día 16/07/2021
  • 10 - 55,1 % del día 15/07/2021
  • 11 - 55,3 % del día 14/07/2021
  • 12 - 55,6 % del día 13/07/2021
  • 13 - 55,7 % del día 12/07/2021
  • 14 - 55,7 % del día 11/07/2021
  • 15 - 55,9 % del día 10/07/2021
  • 16 - 56,2 % del día 09/07/2021
  • 17 - 56,5 % del día 08/07/2021
  • 18 - 56,8 % del día 07/07/2021
  • 19 - 56,9 % del día 06/07/2021
  • 20 - 57,3 % del día 05/07/2021
  • 21 - 57,4 % del día 04/07/2021
  • 22 - 57,7 % del día 03/07/2021
  • 23 - 57,8 % del día 02/07/2021
  • 24 - 58,1 % del día 01/07/2021
  • 25 - 58,4 % del día 30/06/2021
  • 26 - 58,5 % del día 29/06/2021
  • 27 - 58,9 % del día 28/06/2021
  • 28 - 59,2 % del día 27/06/2021
  • 29 - 59,5 % del día 26/06/2021
  • 30 - 60 % del día 25/06/2021
  • 31 - 60,6 % del día 24/06/2021
  • 32 - 61,3 % del día 23/06/2021
  • 33 - 62,2 % del día 22/06/2021
  • 34 - 63,2 % del día 21/06/2021
  • 35 - 64 % del día 20/06/2021
  • 36 - 64,7 % del día 19/06/2021
  • 37 - 66 % del día 18/06/2021
  • 38 - 57,4 % del día 17/06/2021
  • 39 - 57,4 % del día 16/06/2021
  • 40 - 57,6 % del día 15/06/2021
  • 41 - 58,2 % del día 14/06/2021
  • 42 - 58,5 % del día 13/06/2021
  • 43 - 59,1 % del día 12/06/2021
  • 44 - 59,1 % del día 11/06/2021
  • 45 - 61,2 % del día 10/06/2021
  • 46 - 62,3 % del día 09/06/2021
  • 47 - 63,7 % del día 08/06/2021
  • 48 - 65,2 % del día 07/06/2021
  • 49 - 67,1 % del día 06/06/2021
  • 50 - 58,8 % del día 05/06/2021
  • 51 - 59,1 % del día 04/06/2021
  • 52 - 59,7 % del día 03/06/2021
  • 53 - 60,3 % del día 02/06/2021
  • 54 - 60,4 % del día 01/06/2021
  • 55 - 61 % del día 31/05/2021
  • 56 - 61,7 % del día 30/05/2021
  • 57 - 62,4 % del día 29/05/2021
  • 58 - 62,9 % del día 28/05/2021
  • 59 - 63,2 % del día 27/05/2021

 

|| Temperatura Ambiente|| Humedad relativa|| Velocidad y dirección del viento|| Precipitación|| Radiación Solar Global y PAR|| Presión atmosférica|| Más información|| Volver a la página principal|| Volver al inicio de la página||


Estación Meteorológica de la Universidad de Murcia
http://estacion.um.es/
Informacion actualizada a: 26/07/2021 a las 02:58:00